Time;durP1;ratioP1;P1;durP2;ratioP2;P2;SDS_P1;SDS_P2;PMS_P1;PMS_P2;Temp;Humidity;BMP_temperature;BMP_pressure;BME280_temperature;BME280_humidity;BME280_pressure;Samples;Min_cycle;Max_cycle;Signal;HPM_P1;HPM_P2
2020/12/17 00:01:26;;;;;;;;;;;8.50;99.90;;;;;;4178936;28;19917;-78
2020/12/17 00:03:27;;;;;;;;;;;8.50;99.90;;;;;;4196712;28;19912;-78
2020/12/17 00:05:27;;;;;;;;;;;8.50;99.90;;;;;;4164869;28;19967;-79
2020/12/17 00:07:28;;;;;;;;;;;8.50;99.90;;;;;;4178936;28;19913;-77
2020/12/17 00:09:28;;;;;;;;;;;8.50;99.90;;;;;;4178730;28;19924;-78
2020/12/17 00:11:29;;;;;;;;;;;8.50;99.90;;;;;;4195434;28;20007;-78
2020/12/17 00:13:30;;;;;;;;;;;8.50;99.90;;;;;;4195351;28;20371;-78
2020/12/17 00:15:30;;;;;;;;;;;8.50;99.90;;;;;;4177435;28;20379;-77
2020/12/17 00:17:32;;;;;;;;;;;8.60;99.90;;;;;;4177518;28;20407;-77
2020/12/17 00:19:32;;;;;;;;;;;8.50;99.90;;;;;;4195332;28;19917;-77
2020/12/17 00:21:33;;;;;;;;;;;8.50;99.90;;;;;;4195245;28;20365;-78
2020/12/17 00:23:33;;;;;;;;;;;8.50;99.90;;;;;;4194802;28;19913;-77
2020/12/17 00:25:34;;;;;;;;;;;8.50;99.90;;;;;;4195484;28;19912;-77
2020/12/17 00:27:38;;;;;;;;;;;8.40;99.90;;;;;;4178522;28;20003;-78
2020/12/17 00:29:39;;;;;;;;;;;8.40;99.90;;;;;;4195934;28;20067;-78
2020/12/17 00:31:39;;;;;;;;;;;8.40;99.90;;;;;;4196345;28;20330;-77
2020/12/17 00:33:40;;;;;;;;;;;8.40;99.90;;;;;;4196372;28;20577;-78
2020/12/17 00:35:40;;;;;;;;;;;8.40;99.90;;;;;;4196059;28;20359;-77
2020/12/17 00:37:41;;;;;;;;;;;8.40;99.90;;;;;;4196220;28;20012;-77
2020/12/17 00:39:42;;;;;;;;;;;8.40;99.90;;;;;;4178319;28;19913;-77
2020/12/17 00:41:42;;;;;;;;;;;8.50;99.90;;;;;;4196347;28;19912;-77
2020/12/17 00:43:44;;;;;;;;;;;8.50;99.90;;;;;;4178482;28;20268;-77
2020/12/17 00:45:45;;;;;;;;;;;8.50;99.90;;;;;;4178552;28;19916;-77
2020/12/17 00:47:45;;;;;;;;;;;8.40;99.90;;;;;;4178132;28;20456;-78
2020/12/17 00:49:46;;;;;;;;;;;8.40;99.90;;;;;;4195179;28;19916;-78
2020/12/17 00:51:46;;;;;;;;;;;8.40;99.90;;;;;;4188262;28;19970;-78
2020/12/17 00:53:47;;;;;;;;;;;8.40;99.90;;;;;;4194694;28;20549;-78
2020/12/17 00:55:47;;;;;;;;;;;8.40;99.90;;;;;;4195873;28;19916;-78
2020/12/17 00:57:48;;;;;;;;;;;8.40;99.90;;;;;;4194522;28;19913;-78
2020/12/17 00:59:48;;;;;;;;;;;8.40;99.90;;;;;;4176453;28;19980;-78
2020/12/17 01:01:49;;;;;;;;;;;8.50;99.90;;;;;;4194404;28;20360;-78
2020/12/17 01:03:50;;;;;;;;;;;8.40;99.90;;;;;;4194464;28;19913;-78
2020/12/17 01:05:50;;;;;;;;;;;8.40;99.90;;;;;;4194439;28;19913;-78
2020/12/17 01:07:51;;;;;;;;;;;8.50;99.90;;;;;;4176553;28;19920;-78
2020/12/17 01:09:52;;;;;;;;;;;8.50;99.90;;;;;;4176664;28;19924;-79
2020/12/17 01:11:52;;;;;;;;;;;8.50;99.90;;;;;;4176462;28;19923;-78
2020/12/17 01:13:53;;;;;;;;;;;8.50;99.90;;;;;;4176027;28;19912;-78
2020/12/17 01:15:54;;;;;;;;;;;8.50;99.90;;;;;;4176424;28;19920;-78
2020/12/17 01:17:54;;;;;;;;;;;8.50;99.90;;;;;;4175892;28;19917;-78
2020/12/17 01:19:55;;;;;;;;;;;8.50;99.90;;;;;;4191139;28;19920;-78
2020/12/17 01:21:55;;;;;;;;;;;8.50;99.90;;;;;;4175937;28;19962;-78
2020/12/17 01:23:56;;;;;;;;;;;8.50;99.90;;;;;;4176476;28;19913;-78
2020/12/17 01:25:56;;;;;;;;;;;8.50;99.90;;;;;;4195246;28;19966;-78
2020/12/17 01:27:57;;;;;;;;;;;8.50;99.90;;;;;;4195658;28;20313;-78
2020/12/17 01:29:58;;;;;;;;;;;8.50;99.90;;;;;;4195052;28;19947;-78
2020/12/17 01:31:59;;;;;;;;;;;8.60;99.90;;;;;;4195101;28;20388;-78
2020/12/17 01:33:59;;;;;;;;;;;8.60;99.90;;;;;;4195497;28;20000;-78
2020/12/17 01:36:04;;;;;;;;;;;8.60;99.90;;;;;;4177292;28;19925;-78
2020/12/17 01:38:04;;;;;;;;;;;8.60;99.90;;;;;;4194779;28;20463;-78
2020/12/17 01:40:05;;;;;;;;;;;8.60;99.90;;;;;;4195107;28;19923;-78
2020/12/17 01:42:06;;;;;;;;;;;8.60;99.90;;;;;;4177438;28;20434;-79
2020/12/17 01:44:06;;;;;;;;;;;8.60;99.90;;;;;;4177346;28;19913;-79
2020/12/17 01:46:07;;;;;;;;;;;8.60;99.90;;;;;;4195422;28;19919;-78
2020/12/17 01:48:08;;;;;;;;;;;8.70;99.90;;;;;;4195152;28;19960;-78
2020/12/17 01:50:08;;;;;;;;;;;8.60;99.90;;;;;;4177164;28;20277;-78
2020/12/17 01:52:09;;;;;;;;;;;8.60;99.90;;;;;;4177322;28;19920;-78
2020/12/17 01:54:10;;;;;;;;;;;8.60;99.90;;;;;;4195501;28;19931;-78
2020/12/17 01:56:31;;;;;;;;;;;8.50;99.90;;;;;;4177384;28;19913;-79
2020/12/17 01:58:33;;;;;;;;;;;8.50;99.90;;;;;;4194644;28;19912;-78
2020/12/17 02:00:35;;;;;;;;;;;8.60;99.90;;;;;;4194759;28;19913;-78
2020/12/17 02:02:36;;;;;;;;;;;8.60;99.90;;;;;;4195050;28;20339;-78
2020/12/17 02:04:36;;;;;;;;;;;8.60;99.90;;;;;;4195057;28;19912;-78
2020/12/17 02:06:37;;;;;;;;;;;8.60;99.90;;;;;;4177260;28;19956;-79
2020/12/17 02:08:39;;;;;;;;;;;8.70;99.90;;;;;;4177151;28;19917;-78
2020/12/17 02:10:40;;;;;;;;;;;8.70;99.90;;;;;;4176973;28;20008;-78
2020/12/17 02:12:44;;;;;;;;;;;8.70;99.90;;;;;;4177223;28;19971;-79
2020/12/17 02:14:44;;;;;;;;;;;8.70;99.90;;;;;;4177097;28;19916;-79
2020/12/17 02:16:45;;;;;;;;;;;8.70;99.90;;;;;;4197777;28;19958;-78
2020/12/17 02:18:49;;;;;;;;;;;8.70;99.90;;;;;;4180398;28;19917;-79
2020/12/17 02:20:50;;;;;;;;;;;8.70;99.90;;;;;;4197752;28;19912;-78
2020/12/17 02:22:51;;;;;;;;;;;8.80;99.90;;;;;;4180551;28;19976;-78
2020/12/17 02:24:51;;;;;;;;;;;8.80;99.90;;;;;;4197785;28;19920;-78
2020/12/17 02:26:52;;;;;;;;;;;8.80;99.90;;;;;;4180219;28;20264;-78
2020/12/17 02:28:52;;;;;;;;;;;8.80;99.90;;;;;;4197376;28;20330;-78
2020/12/17 02:30:53;;;;;;;;;;;8.80;99.90;;;;;;4180328;28;19913;-78
2020/12/17 02:32:53;;;;;;;;;;;8.80;99.90;;;;;;4179629;28;19919;-78
2020/12/17 02:34:54;;;;;;;;;;;8.80;99.90;;;;;;4179988;28;19960;-78
2020/12/17 02:36:55;;;;;;;;;;;8.80;99.90;;;;;;4197765;28;19923;-78
2020/12/17 02:38:55;;;;;;;;;;;8.80;99.90;;;;;;4197690;28;19962;-78
2020/12/17 02:40:56;;;;;;;;;;;8.70;99.90;;;;;;4197901;28;19913;-78
2020/12/17 02:42:56;;;;;;;;;;;8.70;99.90;;;;;;4180003;28;19943;-78
2020/12/17 02:44:57;;;;;;;;;;;8.70;99.90;;;;;;4179747;28;20257;-78
2020/12/17 02:46:57;;;;;;;;;;;8.70;99.90;;;;;;4197748;28;19912;-78
2020/12/17 02:48:58;;;;;;;;;;;8.70;99.90;;;;;;4197639;28;19916;-78
2020/12/17 02:50:58;;;;;;;;;;;8.70;99.90;;;;;;4177291;28;20248;-78
2020/12/17 02:52:59;;;;;;;;;;;8.70;99.90;;;;;;4196372;28;19913;-78
2020/12/17 02:54:59;;;;;;;;;;;8.80;99.90;;;;;;4197279;28;19919;-78
2020/12/17 02:57:00;;;;;;;;;;;8.80;99.90;;;;;;4179844;28;19913;-77
2020/12/17 02:59:01;;;;;;;;;;;8.80;99.90;;;;;;4179718;28;19913;-78
2020/12/17 03:01:02;;;;;;;;;;;8.80;99.90;;;;;;4197172;28;19917;-78
2020/12/17 03:03:03;;;;;;;;;;;8.70;99.90;;;;;;4197329;28;19920;-77
2020/12/17 03:05:04;;;;;;;;;;;8.70;99.90;;;;;;4179734;28;19990;-77
2020/12/17 03:07:05;;;;;;;;;;;8.70;99.90;;;;;;4179359;28;20404;-77
2020/12/17 03:09:06;;;;;;;;;;;8.70;99.90;;;;;;4197131;28;19921;-78
2020/12/17 03:11:07;;;;;;;;;;;8.70;99.90;;;;;;4179467;28;19960;-77
2020/12/17 03:13:07;;;;;;;;;;;8.70;99.90;;;;;;4179471;28;20028;-78
2020/12/17 03:15:09;;;;;;;;;;;8.70;99.90;;;;;;4179493;28;19984;-77
2020/12/17 03:17:09;;;;;;;;;;;8.70;99.90;;;;;;4162973;28;20368;-78
2020/12/17 03:19:10;;;;;;;;;;;8.70;99.90;;;;;;4166538;28;19919;-77
2020/12/17 03:21:11;;;;;;;;;;;8.80;99.90;;;;;;4179025;28;19913;-78
2020/12/17 03:23:11;;;;;;;;;;;8.80;99.90;;;;;;4197323;28;19913;-77
2020/12/17 03:25:12;;;;;;;;;;;8.80;99.90;;;;;;4195623;28;20268;-78
2020/12/17 03:27:13;;;;;;;;;;;8.80;99.90;;;;;;4179038;28;19956;-78
2020/12/17 03:29:13;;;;;;;;;;;8.80;99.90;;;;;;4177202;28;20359;-78
2020/12/17 03:31:14;;;;;;;;;;;8.80;99.90;;;;;;4177323;28;20361;-77
2020/12/17 03:33:15;;;;;;;;;;;8.80;99.90;;;;;;4177793;28;19924;-78
2020/12/17 03:35:15;;;;;;;;;;;8.80;99.90;;;;;;4195283;28;19956;-78
2020/12/17 03:37:16;;;;;;;;;;;8.80;99.90;;;;;;4177370;28;20396;-78
2020/12/17 03:39:16;;;;;;;;;;;8.70;99.90;;;;;;4177347;28;19944;-79
2020/12/17 03:41:17;;;;;;;;;;;8.70;99.90;;;;;;4177559;28;19920;-78
2020/12/17 03:43:17;;;;;;;;;;;8.70;99.90;;;;;;4177237;28;20621;-79
2020/12/17 03:45:18;;;;;;;;;;;8.70;99.90;;;;;;4177349;28;19990;-78
2020/12/17 03:47:18;;;;;;;;;;;8.70;99.90;;;;;;4177374;28;19917;-78
2020/12/17 03:49:19;;;;;;;;;;;8.70;99.90;;;;;;4195058;28;19920;-78
2020/12/17 03:51:20;;;;;;;;;;;8.70;99.90;;;;;;4195283;28;19912;-78
2020/12/17 03:53:20;;;;;;;;;;;8.70;99.90;;;;;;4195067;28;19920;-78
2020/12/17 03:55:21;;;;;;;;;;;8.70;99.90;;;;;;4177070;28;19923;-78
2020/12/17 03:57:21;;;;;;;;;;;8.70;99.90;;;;;;4177177;28;19991;-78
2020/12/17 03:59:22;;;;;;;;;;;8.70;99.90;;;;;;4196074;28;19916;-78
2020/12/17 04:01:22;;;;;;;;;;;8.70;99.90;;;;;;4178805;28;19982;-78
2020/12/17 04:03:23;;;;;;;;;;;8.70;99.90;;;;;;4178620;28;19976;-78
2020/12/17 04:05:23;;;;;;;;;;;8.70;99.90;;;;;;4195870;28;19963;-79
2020/12/17 04:07:24;;;;;;;;;;;8.70;99.90;;;;;;4178830;28;19920;-78
2020/12/17 04:09:24;;;;;;;;;;;8.70;99.90;;;;;;4196279;28;19947;-79
2020/12/17 04:11:25;;;;;;;;;;;8.70;99.90;;;;;;4178514;28;20379;-79
2020/12/17 04:13:26;;;;;;;;;;;8.70;99.90;;;;;;4178502;28;19913;-79
2020/12/17 04:15:26;;;;;;;;;;;8.70;99.90;;;;;;4195831;28;19924;-79
2020/12/17 04:17:27;;;;;;;;;;;8.70;99.90;;;;;;4178451;28;20327;-79
2020/12/17 04:19:28;;;;;;;;;;;8.70;99.90;;;;;;4196356;28;19914;-80
2020/12/17 04:21:28;;;;;;;;;;;8.70;99.90;;;;;;4178320;28;20003;-80
2020/12/17 04:23:29;;;;;;;;;;;8.70;99.90;;;;;;4196190;28;19920;-79
2020/12/17 04:25:30;;;;;;;;;;;8.70;99.90;;;;;;4196087;28;19912;-80
2020/12/17 04:27:30;;;;;;;;;;;8.70;99.90;;;;;;4178062;28;19913;-79
2020/12/17 04:29:31;;;;;;;;;;;8.70;99.90;;;;;;4195741;28;19931;-80
2020/12/17 04:31:31;;;;;;;;;;;8.70;99.90;;;;;;4178408;28;19913;-81
2020/12/17 04:33:32;;;;;;;;;;;8.70;99.90;;;;;;4177972;28;19958;-80
2020/12/17 04:35:32;;;;;;;;;;;8.80;99.90;;;;;;4195411;28;20512;-81
2020/12/17 04:37:33;;;;;;;;;;;8.80;99.90;;;;;;4195968;28;19924;-80
2020/12/17 04:39:34;;;;;;;;;;;8.80;99.90;;;;;;4177177;28;20003;-81
2020/12/17 04:41:36;;;;;;;;;;;8.80;99.90;;;;;;4176597;28;19916;-81
2020/12/17 04:43:37;;;;;;;;;;;8.90;99.90;;;;;;4176448;28;19998;-80
2020/12/17 04:45:38;;;;;;;;;;;8.90;99.90;;;;;;4176764;28;19913;-80
2020/12/17 04:47:39;;;;;;;;;;;8.90;99.90;;;;;;4194469;28;19913;-80
2020/12/17 04:49:48;;;;;;;;;;;8.90;99.90;;;;;;4176120;28;19917;-81
2020/12/17 04:51:53;;;;;;;;;;;8.90;99.90;;;;;;4192599;28;19998;-80
2020/12/17 04:53:59;;;;;;;;;;;8.90;99.90;;;;;;4190019;28;21207;-80
2020/12/17 04:55:59;;;;;;;;;;;8.90;99.90;;;;;;4176675;28;19913;-80
2020/12/17 04:58:00;;;;;;;;;;;8.90;99.90;;;;;;4176252;28;19923;-81
2020/12/17 05:00:01;;;;;;;;;;;9.00;99.90;;;;;;4176088;28;20430;-80
2020/12/17 05:02:04;;;;;;;;;;;9.00;99.90;;;;;;4176076;28;19913;-81
2020/12/17 05:04:05;;;;;;;;;;;9.00;99.90;;;;;;4176276;28;19917;-80
2020/12/17 05:06:06;;;;;;;;;;;9.00;99.90;;;;;;4176358;28;20368;-80
2020/12/17 05:08:07;;;;;;;;;;;9.00;99.90;;;;;;4176510;28;19963;-81
2020/12/17 05:10:08;;;;;;;;;;;9.00;99.90;;;;;;4193796;28;19927;-80
2020/12/17 05:12:09;;;;;;;;;;;9.00;99.90;;;;;;4194864;28;19952;-80
2020/12/17 05:14:12;;;;;;;;;;;9.00;99.90;;;;;;4195694;28;19919;-80
2020/12/17 05:16:12;;;;;;;;;;;9.00;99.90;;;;;;4177818;28;19924;-81
2020/12/17 05:18:13;;;;;;;;;;;9.00;99.90;;;;;;4177616;28;19913;-80
2020/12/17 05:20:15;;;;;;;;;;;9.00;99.90;;;;;;4177567;28;19913;-81
2020/12/17 05:22:16;;;;;;;;;;;9.00;99.90;;;;;;4177775;28;19924;-80
2020/12/17 05:24:18;;;;;;;;;;;9.00;99.90;;;;;;4195500;28;19913;-80
2020/12/17 05:26:23;;;;;;;;;;;9.00;99.90;;;;;;4177349;28;19917;-81
2020/12/17 05:28:23;;;;;;;;;;;9.00;99.90;;;;;;4177485;28;20000;-81
2020/12/17 05:30:34;;;;;;;;;;;9.00;99.90;;;;;;4195593;28;19921;-81
2020/12/17 05:32:35;;;;;;;;;;;9.00;99.90;;;;;;4195407;28;19979;-81
2020/12/17 05:34:35;;;;;;;;;;;9.00;99.90;;;;;;4177367;28;19920;-80
2020/12/17 05:36:36;;;;;;;;;;;9.00;99.90;;;;;;4177007;28;19913;-80
2020/12/17 05:38:37;;;;;;;;;;;9.00;99.90;;;;;;4176668;28;19912;-80
2020/12/17 05:40:38;;;;;;;;;;;9.00;99.90;;;;;;4176593;28;19912;-80
2020/12/17 05:42:40;;;;;;;;;;;8.90;99.90;;;;;;4176091;28;19913;-80
2020/12/17 05:44:41;;;;;;;;;;;8.90;99.90;;;;;;4193887;28;19939;-80
2020/12/17 05:46:42;;;;;;;;;;;8.80;99.90;;;;;;4177197;28;19917;-80
2020/12/17 05:48:43;;;;;;;;;;;8.80;99.90;;;;;;4194104;28;19959;-81
2020/12/17 05:50:51;;;;;;;;;;;8.80;99.90;;;;;;4195056;28;19912;-80
2020/12/17 05:52:52;;;;;;;;;;;8.80;99.90;;;;;;4180047;28;19963;-79
2020/12/17 05:54:53;;;;;;;;;;;8.90;99.90;;;;;;4198649;28;20004;-81
2020/12/17 05:57:04;;;;;;;;;;;8.90;99.90;;;;;;4198154;28;20414;-80
2020/12/17 05:59:05;;;;;;;;;;;8.90;99.90;;;;;;4190364;28;19983;-81
2020/12/17 06:01:08;;;;;;;;;;;8.90;99.90;;;;;;4178635;28;20473;-81
2020/12/17 06:03:10;;;;;;;;;;;8.90;99.90;;;;;;4179286;28;19952;-80
2020/12/17 06:05:11;;;;;;;;;;;8.90;99.90;;;;;;4196672;28;19913;-80
2020/12/17 06:07:14;;;;;;;;;;;8.90;99.90;;;;;;4179248;28;19917;-81
2020/12/17 06:09:24;;;;;;;;;;;8.90;99.90;;;;;;4196795;28;19920;-81
2020/12/17 06:11:30;;;;;;;;;;;8.90;99.90;;;;;;4178986;28;19924;-80
2020/12/17 06:13:37;;;;;;;;;;;8.80;99.90;;;;;;4178858;28;20004;-80
2020/12/17 06:15:38;;;;;;;;;;;8.90;99.90;;;;;;4198063;28;20426;-80
2020/12/17 06:17:42;;;;;;;;;;;8.80;99.90;;;;;;4180485;28;19912;-80
2020/12/17 06:19:44;;;;;;;;;;;8.80;99.90;;;;;;4179066;28;20331;-80
2020/12/17 06:21:45;;;;;;;;;;;8.80;99.90;;;;;;4196727;28;19916;-80
2020/12/17 06:23:46;;;;;;;;;;;8.80;99.90;;;;;;4178872;28;19917;-80
2020/12/17 06:25:49;;;;;;;;;;;8.80;99.90;;;;;;4167436;28;20542;-81
2020/12/17 06:27:50;;;;;;;;;;;8.80;99.90;;;;;;4193524;28;19942;-80
2020/12/17 06:29:55;;;;;;;;;;;8.80;99.90;;;;;;4190634;28;19931;-80
2020/12/17 06:31:57;;;;;;;;;;;8.70;99.90;;;;;;4185630;28;19917;-80
2020/12/17 06:34:06;;;;;;;;;;;8.70;99.90;;;;;;4158011;28;20012;-80
2020/12/17 06:36:26;;;;;;;;;;;8.70;99.90;;;;;;4182497;28;20427;-80
2020/12/17 06:38:27;;;;;;;;;;;8.70;99.90;;;;;;4174159;28;19913;-80
2020/12/17 06:40:28;;;;;;;;;;;8.80;99.90;;;;;;4189294;28;20386;-81
2020/12/17 06:42:33;;;;;;;;;;;8.80;99.90;;;;;;4164711;28;20055;-79
2020/12/17 06:44:34;;;;;;;;;;;8.80;99.90;;;;;;4185110;28;19917;-83
2020/12/17 06:46:38;;;;;;;;;;;8.70;99.90;;;;;;4168942;28;19924;-81
2020/12/17 06:48:41;;;;;;;;;;;8.70;99.90;;;;;;4166597;28;20011;-79
2020/12/17 06:50:41;;;;;;;;;;;8.70;99.90;;;;;;4164581;28;19949;-81
2020/12/17 06:53:00;;;;;;;;;;;8.60;99.90;;;;;;4172775;28;19917;-81
2020/12/17 06:55:00;;;;;;;;;;;8.60;99.90;;;;;;4183963;28;19921;-81
2020/12/17 06:57:05;;;;;;;;;;;8.60;99.90;;;;;;4166815;28;20284;-81
2020/12/17 06:59:15;;;;;;;;;;;8.60;99.90;;;;;;4183446;28;20430;-81
2020/12/17 07:01:23;;;;;;;;;;;8.60;99.90;;;;;;4194573;28;20009;-81
2020/12/17 07:03:46;;;;;;;;;;;8.60;99.90;;;;;;4198041;28;19916;-81
2020/12/17 07:05:46;;;;;;;;;;;8.60;99.90;;;;;;4168212;28;20339;-81
2020/12/17 07:07:47;;;;;;;;;;;8.60;99.90;;;;;;4179491;28;19913;-81
2020/12/17 07:09:48;;;;;;;;;;;8.60;99.90;;;;;;4179429;28;20283;-81
2020/12/17 07:11:48;;;;;;;;;;;8.60;99.90;;;;;;4179451;28;19912;-81
2020/12/17 07:13:49;;;;;;;;;;;8.60;99.90;;;;;;4178404;28;19940;-80
2020/12/17 07:15:51;;;;;;;;;;;8.60;99.90;;;;;;4178809;28;19963;-80
2020/12/17 07:17:51;;;;;;;;;;;8.50;99.90;;;;;;4197077;28;20043;-81
2020/12/17 07:19:53;;;;;;;;;;;8.50;99.90;;;;;;4179347;28;20454;-81
2020/12/17 07:21:58;;;;;;;;;;;8.50;99.90;;;;;;4177711;28;19917;-81
2020/12/17 07:23:59;;;;;;;;;;;8.50;99.90;;;;;;4195423;28;19912;-81
2020/12/17 07:26:05;;;;;;;;;;;8.50;99.90;;;;;;4195445;28;19992;-80
2020/12/17 07:28:05;;;;;;;;;;;8.50;99.90;;;;;;4195203;28;19917;-81
2020/12/17 07:30:08;;;;;;;;;;;8.50;99.90;;;;;;4195178;28;20338;-80
2020/12/17 07:32:24;;;;;;;;;;;8.50;99.90;;;;;;4178014;28;20036;-80
2020/12/17 07:34:29;;;;;;;;;;;8.40;99.90;;;;;;4178331;28;19913;-80
2020/12/17 07:36:46;;;;;;;;;;;8.50;99.90;;;;;;4196651;28;19913;-80
2020/12/17 07:38:46;;;;;;;;;;;8.50;99.90;;;;;;4196741;28;19952;-80
2020/12/17 07:40:47;;;;;;;;;;;8.50;99.90;;;;;;4191028;28;19923;-80
2020/12/17 07:42:57;;;;;;;;;;;8.50;99.90;;;;;;4167124;28;19913;-79
2020/12/17 07:44:57;;;;;;;;;;;8.50;99.90;;;;;;4176700;28;20422;-80
2020/12/17 07:47:17;;;;;;;;;;;8.50;99.90;;;;;;4181306;28;19913;-80
2020/12/17 07:49:30;;;;;;;;;;;8.40;99.90;;;;;;4168174;28;20443;-80
2020/12/17 07:51:31;;;;;;;;;;;8.40;99.90;;;;;;4163692;28;20004;-79
2020/12/17 07:53:32;;;;;;;;;;;8.50;99.90;;;;;;4196374;28;20379;-80
2020/12/17 07:55:33;;;;;;;;;;;8.50;99.90;;;;;;4196511;28;19923;-79
2020/12/17 07:57:34;;;;;;;;;;;8.50;99.90;;;;;;4174729;28;19921;-80
2020/12/17 07:59:35;;;;;;;;;;;8.50;99.90;;;;;;4176315;28;19949;-80
2020/12/17 08:01:35;;;;;;;;;;;8.50;99.90;;;;;;4166459;28;19913;-80
2020/12/17 08:03:54;;;;;;;;;;;8.50;99.90;;;;;;4175704;28;19913;-81
2020/12/17 08:06:08;;;;;;;;;;;8.60;99.90;;;;;;4171407;28;19913;-80
2020/12/17 08:08:12;;;;;;;;;;;8.50;99.90;;;;;;4185162;28;19912;-81
2020/12/17 08:10:15;;;;;;;;;;;8.50;99.90;;;;;;4185714;28;19924;-79
2020/12/17 08:12:16;;;;;;;;;;;8.40;99.90;;;;;;4186719;28;19954;-80
2020/12/17 08:14:20;;;;;;;;;;;8.40;99.90;;;;;;4179932;28;19913;-80
2020/12/17 08:16:21;;;;;;;;;;;8.50;99.90;;;;;;4181499;28;19917;-79
2020/12/17 08:18:23;;;;;;;;;;;8.50;99.90;;;;;;4166269;28;19986;-79
2020/12/17 08:20:26;;;;;;;;;;;8.60;99.90;;;;;;4166902;28;20008;-80
2020/12/17 08:22:28;;;;;;;;;;;8.60;99.90;;;;;;4181105;28;20006;-80
2020/12/17 08:24:29;;;;;;;;;;;8.60;99.90;;;;;;4184296;28;19919;-80
2020/12/17 08:26:29;;;;;;;;;;;8.70;99.90;;;;;;4178027;28;19952;-80
2020/12/17 08:28:31;;;;;;;;;;;8.70;99.90;;;;;;4174162;28;19917;-79
2020/12/17 08:30:31;;;;;;;;;;;8.70;99.90;;;;;;4177194;28;20003;-79
2020/12/17 08:32:32;;;;;;;;;;;8.70;99.90;;;;;;4195494;28;20008;-79
2020/12/17 08:34:33;;;;;;;;;;;8.70;99.90;;;;;;4193248;28;20019;-79
2020/12/17 08:36:36;;;;;;;;;;;8.70;99.90;;;;;;4195241;28;20016;-80
2020/12/17 08:38:37;;;;;;;;;;;8.70;99.90;;;;;;4194381;28;19974;-79
2020/12/17 08:40:38;;;;;;;;;;;8.70;99.90;;;;;;4177755;28;19913;-78
2020/12/17 08:42:41;;;;;;;;;;;8.70;99.90;;;;;;4176729;28;20295;-80
2020/12/17 08:44:42;;;;;;;;;;;8.70;99.90;;;;;;4192346;28;19917;-79
2020/12/17 08:46:53;;;;;;;;;;;8.80;99.90;;;;;;4195481;28;19963;-79
2020/12/17 08:48:54;;;;;;;;;;;8.80;99.90;;;;;;4176899;28;19924;-80
2020/12/17 08:50:55;;;;;;;;;;;8.80;99.90;;;;;;4176179;28;19987;-78
2020/12/17 08:52:55;;;;;;;;;;;8.80;99.90;;;;;;4180279;28;19924;-78
2020/12/17 08:55:07;;;;;;;;;;;8.90;99.90;;;;;;4193052;28;19978;-78
2020/12/17 08:57:11;;;;;;;;;;;8.90;99.90;;;;;;4175197;28;19917;-77
2020/12/17 08:59:12;;;;;;;;;;;8.90;99.90;;;;;;4176210;28;20339;-77
2020/12/17 09:01:15;;;;;;;;;;;8.90;99.90;;;;;;4194077;28;19921;-77
2020/12/17 09:03:18;;;;;;;;;;;8.90;99.90;;;;;;4193419;28;20553;-78
2020/12/17 09:05:19;;;;;;;;;;;8.90;99.90;;;;;;4193873;28;19951;-77
2020/12/17 09:07:23;;;;;;;;;;;8.90;99.90;;;;;;4173955;28;19917;-79
2020/12/17 09:09:25;;;;;;;;;;;9.00;99.90;;;;;;4188509;28;19951;-78
2020/12/17 09:11:32;;;;;;;;;;;9.00;99.90;;;;;;4176327;28;20387;-78
2020/12/17 09:13:33;;;;;;;;;;;9.00;99.90;;;;;;4172797;28;19939;-78
2020/12/17 09:15:33;;;;;;;;;;;9.10;99.90;;;;;;4175764;28;19952;-78
2020/12/17 09:17:34;;;;;;;;;;;9.10;99.90;;;;;;4179036;28;20447;-78
2020/12/17 09:19:35;;;;;;;;;;;9.10;99.90;;;;;;4175956;28;19917;-78
2020/12/17 09:21:36;;;;;;;;;;;9.20;99.90;;;;;;4176170;28;19917;-79
2020/12/17 09:23:38;;;;;;;;;;;9.20;99.90;;;;;;4175692;28;19923;-78
2020/12/17 09:25:39;;;;;;;;;;;9.30;99.90;;;;;;4193366;28;19923;-78
2020/12/17 09:27:40;;;;;;;;;;;9.40;99.90;;;;;;4169035;28;20439;-78
2020/12/17 09:29:41;;;;;;;;;;;9.50;99.90;;;;;;4177537;28;19929;-78
2020/12/17 09:31:41;;;;;;;;;;;9.60;99.90;;;;;;4190626;28;20015;-78
2020/12/17 09:33:42;;;;;;;;;;;9.60;99.90;;;;;;4171264;28;19920;-79
2020/12/17 09:35:43;;;;;;;;;;;9.60;99.90;;;;;;4174755;28;19913;-78
2020/12/17 09:37:55;;;;;;;;;;;9.60;99.90;;;;;;4194048;28;19956;-79
2020/12/17 09:39:56;;;;;;;;;;;9.50;99.90;;;;;;4132675;28;19925;-79
2020/12/17 09:41:57;;;;;;;;;;;9.50;99.90;;;;;;4163665;28;19964;-78
2020/12/17 09:43:58;;;;;;;;;;;9.50;99.90;;;;;;4159344;28;19920;-79
2020/12/17 09:45:58;;;;;;;;;;;9.50;99.90;;;;;;4161005;28;19917;-79
2020/12/17 09:47:59;;;;;;;;;;;9.50;99.90;;;;;;4159589;28;20669;-78
2020/12/17 09:50:29;;;;;;;;;;;9.50;99.90;;;;;;4175740;28;20175;-78
2020/12/17 09:52:30;;;;;;;;;;;9.50;99.90;;;;;;4133596;28;19921;-78
2020/12/17 09:54:31;;;;;;;;;;;9.50;99.90;;;;;;4155642;28;20356;-78
2020/12/17 09:56:31;;;;;;;;;;;9.50;99.90;;;;;;4177165;28;19967;-78
2020/12/17 09:58:32;;;;;;;;;;;9.50;99.90;;;;;;4159318;28;20383;-79
2020/12/17 10:00:33;;;;;;;;;;;9.50;99.90;;;;;;4177147;28;19920;-78
2020/12/17 10:02:33;;;;;;;;;;;9.50;99.90;;;;;;4176846;28;19913;-79
2020/12/17 10:04:34;;;;;;;;;;;9.60;99.90;;;;;;4159126;28;19960;-78
2020/12/17 10:06:34;;;;;;;;;;;9.60;99.90;;;;;;4165112;28;20010;-78
2020/12/17 10:08:35;;;;;;;;;;;9.50;99.90;;;;;;4158566;28;20268;-79
2020/12/17 10:10:35;;;;;;;;;;;9.50;99.90;;;;;;4176907;28;19956;-78
2020/12/17 10:12:36;;;;;;;;;;;9.60;99.90;;;;;;4159184;28;19924;-79
2020/12/17 10:14:37;;;;;;;;;;;9.60;99.90;;;;;;4176798;28;19913;-78
2020/12/17 10:16:37;;;;;;;;;;;9.60;99.90;;;;;;4177058;28;19944;-78
2020/12/17 10:18:38;;;;;;;;;;;9.60;99.90;;;;;;4176982;28;19916;-78
2020/12/17 10:20:38;;;;;;;;;;;9.60;99.90;;;;;;4158585;28;20091;-79
2020/12/17 10:22:39;;;;;;;;;;;9.60;99.90;;;;;;4158761;28;19973;-78
2020/12/17 10:24:40;;;;;;;;;;;9.70;99.90;;;;;;4158760;28;19967;-82
2020/12/17 10:26:41;;;;;;;;;;;9.70;99.90;;;;;;4158511;28;19917;-80
2020/12/17 10:28:42;;;;;;;;;;;9.80;99.90;;;;;;4169919;28;20411;-79
2020/12/17 10:30:43;;;;;;;;;;;9.90;99.90;;;;;;4176397;28;19960;-78
2020/12/17 10:32:43;;;;;;;;;;;9.90;99.90;;;;;;4157401;28;19920;-78
2020/12/17 10:34:44;;;;;;;;;;;10.00;99.90;;;;;;4170444;28;20405;-79
2020/12/17 10:36:45;;;;;;;;;;;10.00;99.90;;;;;;4150606;28;19921;-78
2020/12/17 10:38:45;;;;;;;;;;;9.90;99.90;;;;;;4151263;28;19925;-79
2020/12/17 10:40:46;;;;;;;;;;;9.90;99.90;;;;;;4175376;28;19917;-78
2020/12/17 10:42:47;;;;;;;;;;;9.90;99.90;;;;;;4179275;28;19920;-78
2020/12/17 10:44:48;;;;;;;;;;;9.90;99.90;;;;;;4156630;28;19921;-79
2020/12/17 10:46:50;;;;;;;;;;;10.00;99.90;;;;;;4159275;28;20012;-79
2020/12/17 10:48:50;;;;;;;;;;;10.10;99.90;;;;;;4144440;28;20016;-79
2020/12/17 10:50:51;;;;;;;;;;;10.10;99.90;;;;;;4176452;28;20050;-79
2020/12/17 10:52:52;;;;;;;;;;;10.10;99.90;;;;;;4156269;28;20004;-78
2020/12/17 10:54:52;;;;;;;;;;;10.10;99.90;;;;;;4154546;28;19917;-78
2020/12/17 10:56:53;;;;;;;;;;;10.00;99.90;;;;;;4136485;28;19987;-78
2020/12/17 10:58:54;;;;;;;;;;;10.00;99.90;;;;;;4151477;28;19942;-79
2020/12/17 11:00:54;;;;;;;;;;;10.40;99.90;;;;;;4173818;28;19920;-78
2020/12/17 11:02:55;;;;;;;;;;;11.10;99.90;;;;;;4171043;28;19951;-78
2020/12/17 11:04:55;;;;;;;;;;;11.30;99.90;;;;;;4174269;28;20009;-79
2020/12/17 11:06:57;;;;;;;;;;;11.50;99.90;;;;;;4159547;28;19913;-78
2020/12/17 11:08:57;;;;;;;;;;;11.30;99.90;;;;;;4159325;28;19975;-78
2020/12/17 11:10:58;;;;;;;;;;;11.00;99.90;;;;;;4159910;28;20391;-78
2020/12/17 11:12:58;;;;;;;;;;;10.90;99.90;;;;;;4152331;28;19921;-78
2020/12/17 11:14:59;;;;;;;;;;;11.00;99.90;;;;;;4173150;28;20314;-78
2020/12/17 11:17:03;;;;;;;;;;;10.80;99.90;;;;;;4148708;28;20380;-78
2020/12/17 11:19:03;;;;;;;;;;;10.60;99.90;;;;;;4176410;28;19924;-80
2020/12/17 11:21:04;;;;;;;;;;;10.50;99.90;;;;;;4166391;28;19917;-79
2020/12/17 11:23:05;;;;;;;;;;;10.50;99.90;;;;;;4165150;28;19917;-80
2020/12/17 11:25:05;;;;;;;;;;;10.40;99.90;;;;;;4148819;28;19917;-79
2020/12/17 11:27:06;;;;;;;;;;;10.30;99.90;;;;;;4177393;28;20383;-79
2020/12/17 11:29:07;;;;;;;;;;;10.20;99.90;;;;;;4171352;28;19942;-78
2020/12/17 11:31:07;;;;;;;;;;;10.30;99.90;;;;;;4194181;28;19940;-79
2020/12/17 11:33:08;;;;;;;;;;;10.30;99.90;;;;;;4194918;28;19912;-79
2020/12/17 11:35:08;;;;;;;;;;;10.30;99.90;;;;;;4194684;28;19920;-78
2020/12/17 11:37:09;;;;;;;;;;;10.40;99.90;;;;;;4177633;28;19920;-79
2020/12/17 11:39:10;;;;;;;;;;;10.40;99.90;;;;;;4194905;28;19919;-79
2020/12/17 11:41:10;;;;;;;;;;;10.40;99.90;;;;;;4175867;28;19912;-79
2020/12/17 11:43:11;;;;;;;;;;;10.30;99.90;;;;;;4162753;28;20363;-79
2020/12/17 11:45:12;;;;;;;;;;;10.20;99.90;;;;;;4194490;28;19913;-79
2020/12/17 11:47:13;;;;;;;;;;;10.20;99.90;;;;;;4175945;28;19955;-80
2020/12/17 11:49:13;;;;;;;;;;;10.20;99.90;;;;;;4193604;28;19916;-80
2020/12/17 11:51:14;;;;;;;;;;;10.10;99.90;;;;;;4193721;28;20369;-80
2020/12/17 11:53:15;;;;;;;;;;;10.20;99.90;;;;;;4194218;28;20332;-79
2020/12/17 11:55:16;;;;;;;;;;;10.20;99.90;;;;;;4191589;28;19971;-78
2020/12/17 11:57:16;;;;;;;;;;;10.20;99.90;;;;;;4176386;28;19970;-79
2020/12/17 11:59:17;;;;;;;;;;;10.20;99.90;;;;;;4177234;28;19917;-79